createdAt,value
2018-05-04T00:02:23.241Z,28.73
2018-05-04T00:04:51.525Z,30.23
2018-05-04T00:07:19.045Z,32.43
2018-05-04T00:09:48.086Z,31.93
2018-05-04T00:12:15.640Z,34.47
2018-05-04T00:14:43.921Z,30.47
2018-05-04T00:17:11.461Z,28.43
2018-05-04T00:19:39.729Z,27.67
2018-05-04T00:22:08.018Z,28.50
2018-05-04T00:24:36.317Z,26.43
2018-05-04T00:27:03.835Z,26.10
2018-05-04T00:29:32.123Z,29.50
2018-05-04T00:32:00.415Z,28.10
2018-05-04T00:34:27.940Z,30.03
2018-05-04T00:36:56.238Z,31.53
2018-05-04T00:39:24.521Z,29.27
2018-05-04T00:41:52.086Z,32.47
2018-05-04T00:44:19.604Z,30.00
2018-05-04T00:46:47.125Z,32.50
2018-05-04T00:49:14.641Z,32.97
2018-05-04T00:51:42.929Z,32.07
2018-05-04T00:54:23.161Z,32.03
2018-05-04T00:56:50.674Z,30.67
2018-05-04T00:59:18.197Z,32.73
2018-05-04T01:01:46.479Z,33.50
2018-05-04T01:04:14.766Z,33.53
2018-05-04T01:06:42.318Z,31.57
2018-05-04T01:09:10.593Z,31.57
2018-05-04T01:11:38.868Z,32.70
2018-05-04T01:14:07.153Z,31.57
2018-05-04T01:16:35.435Z,30.40
2018-05-04T01:19:02.966Z,29.33
2018-05-04T01:21:31.244Z,30.77
2018-05-04T01:23:59.521Z,30.40
2018-05-04T01:26:27.814Z,30.50
2018-05-04T01:28:55.345Z,30.13
2018-05-04T01:31:23.636Z,29.70
2018-05-04T01:33:51.922Z,29.17
2018-05-04T01:36:20.212Z,29.10
2018-05-04T01:38:47.727Z,30.03
2018-05-04T01:41:15.246Z,30.40
2018-05-04T01:43:42.768Z,28.63
2018-05-04T01:46:11.054Z,30.40
2018-05-04T01:48:39.330Z,28.67
2018-05-04T01:51:07.612Z,29.33
2018-05-04T01:53:35.133Z,30.47
2018-05-04T01:56:02.658Z,28.67
2018-05-04T01:58:30.173Z,29.67
2018-05-04T02:00:58.477Z,28.60
2018-05-04T02:03:25.989Z,27.80
2018-05-04T02:05:53.519Z,29.30
2018-05-04T02:08:21.034Z,29.70
2018-05-04T02:10:49.312Z,28.30
2018-05-04T02:13:17.601Z,29.80
2018-05-04T02:15:45.110Z,29.23
2018-05-04T02:18:14.138Z,28.03
2018-05-04T02:20:42.428Z,28.50
2018-05-04T02:23:09.954Z,30.30
2018-05-04T02:25:38.982Z,30.40
2018-05-04T02:28:06.497Z,28.67
2018-05-04T02:30:34.011Z,29.13
2018-05-04T02:33:01.530Z,28.43
2018-05-04T02:35:29.830Z,31.60
2018-05-04T02:37:57.366Z,39.37
2018-05-04T02:40:25.649Z,30.83
2018-05-04T02:42:53.938Z,29.27
2018-05-04T02:45:22.226Z,29.03
2018-05-04T02:47:49.754Z,29.27
2018-05-04T02:50:18.037Z,31.20
2018-05-04T02:52:46.354Z,28.10
2018-05-04T02:55:13.875Z,30.07
2018-05-04T02:57:42.161Z,30.97
2018-05-04T03:00:10.446Z,28.90
2018-05-04T03:02:37.986Z,28.93
2018-05-04T03:05:06.277Z,29.33
2018-05-04T03:07:34.565Z,31.23
2018-05-04T03:10:02.105Z,30.17
2018-05-04T03:12:30.413Z,27.73
2018-05-04T03:14:57.937Z,28.53
2018-05-04T03:17:26.218Z,29.13
2018-05-04T03:19:54.509Z,29.13
2018-05-04T03:22:22.025Z,28.87
2018-05-04T03:24:49.549Z,28.67
2018-05-04T03:27:17.069Z,232.70
2018-05-04T03:29:45.358Z,186.47
2018-05-04T03:32:12.877Z,38.17
2018-05-04T03:34:40.410Z,30.57
2018-05-04T03:37:07.932Z,29.90
2018-05-04T03:39:35.455Z,28.80
2018-05-04T03:42:02.985Z,28.93
2018-05-04T03:44:30.497Z,28.97
2018-05-04T03:46:58.773Z,27.80
2018-05-04T03:49:27.068Z,27.17
2018-05-04T03:51:54.589Z,28.40
2018-05-04T03:54:22.117Z,28.27
2018-05-04T03:56:49.639Z,28.33
2018-05-04T03:59:29.149Z,28.80
2018-05-04T04:02:08.598Z,27.70
2018-05-04T04:04:36.893Z,29.07
2018-05-04T04:07:04.409Z,29.80
2018-05-04T04:09:31.937Z,31.60
2018-05-04T04:11:59.469Z,28.83
2018-05-04T04:14:27.760Z,31.27
2018-05-04T04:16:55.275Z,30.17
2018-05-04T04:19:22.801Z,27.07
2018-05-04T04:21:50.318Z,27.83
2018-05-04T04:24:18.598Z,27.17
2018-05-04T04:26:46.890Z,26.73
2018-05-04T04:29:14.405Z,27.00
2018-05-04T04:31:41.929Z,30.33
2018-05-04T04:34:09.441Z,27.17
2018-05-04T04:36:37.730Z,27.70
2018-05-04T04:39:05.254Z,28.43
2018-05-04T04:41:32.781Z,29.13
2018-05-04T04:44:00.309Z,26.17
2018-05-04T04:46:27.830Z,26.63
2018-05-04T04:48:55.769Z,27.40
2018-05-04T04:51:23.637Z,28.17
2018-05-04T04:53:51.166Z,26.70
2018-05-04T04:56:18.714Z,26.27
2018-05-04T04:58:47.017Z,25.83
2018-05-04T05:01:14.541Z,26.00
2018-05-04T05:03:42.825Z,25.50
2018-05-04T05:06:11.121Z,25.33
2018-05-04T05:08:38.642Z,25.50
2018-05-04T05:11:06.230Z,26.40
2018-05-04T05:13:33.849Z,25.93
2018-05-04T05:16:01.280Z,23.93
2018-05-04T05:18:28.870Z,25.80
2018-05-04T05:20:56.339Z,23.70
2018-05-04T05:23:24.627Z,24.63
2018-05-04T05:25:52.914Z,24.40
2018-05-04T05:28:21.205Z,23.17
2018-05-04T05:30:48.734Z,24.03
2018-05-04T05:33:17.021Z,23.30
2018-05-04T05:35:45.310Z,23.90
2018-05-04T05:38:12.822Z,56.43
2018-05-04T05:40:41.118Z,30.00
2018-05-04T05:43:09.422Z,25.73
2018-05-04T05:45:36.938Z,24.53
2018-05-04T05:48:04.459Z,25.47
2018-05-04T05:50:31.981Z,24.17
2018-05-04T05:53:00.269Z,23.87
2018-05-04T05:55:27.785Z,24.47
2018-05-04T05:57:55.315Z,23.30
2018-05-04T06:00:22.834Z,25.27
2018-05-04T06:02:51.119Z,24.93
2018-05-04T06:05:20.113Z,22.77
2018-05-04T06:07:48.397Z,24.77
2018-05-04T06:10:15.925Z,24.03
2018-05-04T06:12:43.541Z,25.30
2018-05-04T06:15:11.073Z,24.20
2018-05-04T06:17:38.597Z,25.93
2018-05-04T06:20:06.889Z,25.87
2018-05-04T06:22:35.181Z,26.47
2018-05-04T06:25:03.490Z,25.97
2018-05-04T06:27:31.009Z,24.63
2018-05-04T06:29:59.290Z,27.17
2018-05-04T06:32:27.586Z,24.47
2018-05-04T06:34:55.117Z,26.07
2018-05-04T06:37:23.415Z,25.83
2018-05-04T06:39:50.961Z,24.87
2018-05-04T06:42:19.253Z,24.40
2018-05-04T06:44:46.775Z,24.60
2018-05-04T06:47:14.301Z,24.90
2018-05-04T06:49:41.819Z,24.20
2018-05-04T06:52:10.105Z,25.50
2018-05-04T06:54:37.625Z,24.50
2018-05-04T06:57:05.151Z,23.40
2018-05-04T06:59:32.663Z,23.60
2018-05-04T07:02:00.954Z,24.67
2018-05-04T07:04:28.469Z,25.77
2018-05-04T07:06:55.997Z,24.03
2018-05-04T07:09:23.508Z,22.20
2018-05-04T07:11:51.038Z,22.60
2018-05-04T07:14:18.573Z,24.03
2018-05-04T07:16:46.085Z,24.03
2018-05-04T07:19:14.382Z,24.87
2018-05-04T07:21:42.654Z,24.30
2018-05-04T07:24:10.937Z,24.33
2018-05-04T07:26:38.478Z,23.23
2018-05-04T07:29:07.676Z,23.33
2018-05-04T07:31:35.969Z,24.63
2018-05-04T07:34:03.514Z,23.10
2018-05-04T07:36:31.803Z,22.37
2018-05-04T07:38:59.338Z,22.30
2018-05-04T07:41:27.630Z,22.90
2018-05-04T07:43:55.918Z,22.70
2018-05-04T07:46:24.206Z,22.20
2018-05-04T07:48:51.733Z,23.97
2018-05-04T07:51:20.018Z,22.60
2018-05-04T07:53:48.319Z,24.00
2018-05-04T07:56:36.505Z,23.30
2018-05-04T07:59:04.046Z,22.70
2018-05-04T08:01:31.566Z,26.70
2018-05-04T08:03:59.850Z,23.93
2018-05-04T08:06:27.365Z,24.13
2018-05-04T08:08:54.893Z,24.17
2018-05-04T08:11:22.413Z,23.30
2018-05-04T08:13:50.699Z,24.33
2018-05-04T08:16:18.221Z,21.60
2018-05-04T08:18:46.501Z,24.60
2018-05-04T08:21:14.087Z,29.53
2018-05-04T08:23:42.366Z,28.50
2018-05-04T08:26:10.660Z,22.60
2018-05-04T08:28:38.174Z,24.50
2018-05-04T08:31:05.693Z,23.50
2018-05-04T08:33:33.210Z,23.60
2018-05-04T08:36:01.502Z,23.53
2018-05-04T08:38:29.021Z,23.40
2018-05-04T08:40:56.531Z,23.87
2018-05-04T08:43:24.046Z,24.10
2018-05-04T08:45:51.560Z,22.53
2018-05-04T08:48:19.094Z,22.87
2018-05-04T08:50:47.424Z,23.40
2018-05-04T08:53:14.910Z,22.43
2018-05-04T08:55:43.234Z,25.57
2018-05-04T08:58:10.753Z,23.40
2018-05-04T09:00:39.031Z,24.10
2018-05-04T09:03:07.321Z,23.17
2018-05-04T09:05:34.904Z,24.90
2018-05-04T09:08:03.877Z,24.53
2018-05-04T09:10:31.392Z,24.30
2018-05-04T09:12:58.914Z,23.27
2018-05-04T09:15:26.426Z,25.70
2018-05-04T09:17:53.942Z,23.83
2018-05-04T09:20:21.459Z,24.53
2018-05-04T09:22:49.746Z,24.10
2018-05-04T09:25:17.354Z,26.87
2018-05-04T09:27:45.565Z,25.10
2018-05-04T09:30:13.855Z,23.87
2018-05-04T09:32:41.378Z,25.40
2018-05-04T09:35:08.897Z,25.33
2018-05-04T09:37:36.405Z,26.43
2018-05-04T09:40:03.933Z,25.13
2018-05-04T09:42:31.447Z,24.93
2018-05-04T09:44:59.732Z,25.97
2018-05-04T09:47:27.246Z,25.50
2018-05-04T09:49:55.538Z,25.13
2018-05-04T09:52:23.050Z,25.67
2018-05-04T09:54:50.562Z,25.77
2018-05-04T09:57:18.849Z,25.00
2018-05-04T09:59:47.130Z,24.97
2018-05-04T10:02:15.410Z,25.93
2018-05-04T10:04:42.927Z,25.77
2018-05-04T10:07:11.213Z,26.70
2018-05-04T10:09:38.729Z,25.40
2018-05-04T10:12:06.269Z,24.87
2018-05-04T10:14:33.794Z,26.90
2018-05-04T10:17:01.318Z,26.30
2018-05-04T10:19:28.836Z,26.73
2018-05-04T10:21:57.190Z,27.60
2018-05-04T10:24:24.653Z,27.63
2018-05-04T10:26:52.941Z,28.23
2018-05-04T10:29:21.214Z,25.90
2018-05-04T10:31:49.499Z,27.77
2018-05-04T10:34:17.028Z,26.53
2018-05-04T10:36:44.560Z,27.07
2018-05-04T10:39:12.079Z,26.17
2018-05-04T10:41:39.606Z,27.60
2018-05-04T10:44:07.123Z,26.30
2018-05-04T10:46:34.637Z,26.30
2018-05-04T10:49:02.922Z,27.37
2018-05-04T10:51:31.197Z,26.93
2018-05-04T10:53:59.484Z,27.43
2018-05-04T10:56:27.760Z,28.37
2018-05-04T10:58:55.277Z,28.60
2018-05-04T11:01:22.798Z,29.50
2018-05-04T11:03:50.323Z,28.33
2018-05-04T11:06:18.602Z,29.70
2018-05-04T11:08:46.886Z,31.57
2018-05-04T11:11:14.406Z,27.73
2018-05-04T11:13:41.913Z,29.60
2018-05-04T11:16:09.425Z,32.37
2018-05-04T11:18:38.451Z,30.93
2018-05-04T11:21:06.734Z,31.80
2018-05-04T11:23:34.254Z,29.87
2018-05-04T11:26:03.279Z,31.27
2018-05-04T11:28:31.554Z,31.00
2018-05-04T11:30:59.838Z,32.30
2018-05-04T11:33:28.117Z,30.50
2018-05-04T11:35:56.405Z,32.13
2018-05-04T11:38:23.918Z,33.20
2018-05-04T11:40:51.445Z,32.43
2018-05-04T11:43:18.991Z,34.00
2018-05-04T11:45:46.510Z,32.70
2018-05-04T11:48:14.785Z,31.33
2018-05-04T11:50:43.073Z,31.03
2018-05-04T11:53:11.358Z,30.80
2018-05-04T11:55:38.877Z,30.90
2018-05-04T11:58:06.388Z,33.87
2018-05-04T12:00:33.913Z,34.90
2018-05-04T12:03:02.198Z,35.40
2018-05-04T12:05:30.497Z,32.87
2018-05-04T12:07:58.017Z,31.47
2018-05-04T12:10:25.534Z,34.97
2018-05-04T12:12:53.042Z,35.77
2018-05-04T12:15:21.326Z,30.90
2018-05-04T12:17:49.610Z,31.80
2018-05-04T12:20:17.885Z,34.97
2018-05-04T12:22:46.229Z,33.20
2018-05-04T12:25:13.686Z,33.27
2018-05-04T12:27:41.205Z,32.20
2018-05-04T12:30:08.720Z,33.10
2018-05-04T12:32:36.243Z,31.10
2018-05-04T12:35:03.755Z,32.93
2018-05-04T12:37:32.029Z,33.13
2018-05-04T12:40:00.309Z,37.90
2018-05-04T12:42:28.586Z,36.27
2018-05-04T12:44:56.862Z,37.60
2018-05-04T12:47:25.138Z,35.33
2018-05-04T12:49:53.418Z,42.47
2018-05-04T12:52:21.694Z,30.83
2018-05-04T12:54:49.969Z,32.40
2018-05-04T12:57:18.255Z,31.23
2018-05-04T12:59:45.765Z,31.97
2018-05-04T13:02:13.289Z,30.93
2018-05-04T13:04:40.813Z,31.90
2018-05-04T13:07:09.097Z,31.03
2018-05-04T13:09:37.395Z,30.33
2018-05-04T13:12:04.907Z,32.00
2018-05-04T13:14:32.426Z,31.17
2018-05-04T13:16:59.935Z,32.10
2018-05-04T13:19:28.220Z,35.93
2018-05-04T13:21:56.501Z,44.27
2018-05-04T13:24:24.774Z,35.77
2018-05-04T13:26:53.050Z,33.50
2018-05-04T13:29:21.341Z,30.37
2018-05-04T13:31:48.945Z,31.03
2018-05-04T13:34:16.453Z,32.13
2018-05-04T13:36:44.726Z,31.73
2018-05-04T13:39:13.001Z,34.73
2018-05-04T13:41:41.281Z,33.23
2018-05-04T13:44:09.565Z,32.93
2018-05-04T13:46:37.077Z,31.33
2018-05-04T13:49:04.601Z,29.63
2018-05-04T13:51:32.179Z,31.40
2018-05-04T13:54:00.414Z,29.47
2018-05-04T13:56:28.694Z,32.93
2018-05-04T13:58:56.969Z,33.73
2018-05-04T14:01:25.253Z,31.30
2018-05-04T14:03:52.809Z,34.47
2018-05-04T14:06:20.299Z,32.90
2018-05-04T14:08:47.814Z,33.63
2018-05-04T14:11:16.097Z,29.33
2018-05-04T14:13:43.658Z,34.20
2018-05-04T14:16:11.136Z,32.37
2018-05-04T14:18:38.653Z,42.60
2018-05-04T14:21:06.173Z,35.47
2018-05-04T14:23:33.681Z,29.90
2018-05-04T14:26:01.979Z,32.83
2018-05-04T14:28:29.493Z,32.70
2018-05-04T14:30:57.015Z,32.30
2018-05-04T14:33:24.535Z,33.30
2018-05-04T14:35:52.825Z,31.90
2018-05-04T14:38:20.337Z,32.07
2018-05-04T14:40:47.849Z,30.77
2018-05-04T14:43:15.365Z,29.70
2018-05-04T14:45:42.878Z,30.57
2018-05-04T14:48:10.539Z,29.77
2018-05-04T14:50:38.086Z,30.67
2018-05-04T14:53:05.594Z,34.33
2018-05-04T14:55:33.122Z,31.73
2018-05-04T14:58:00.630Z,30.97
2018-05-04T15:00:28.950Z,29.83
2018-05-04T15:02:56.473Z,29.73
2018-05-04T15:05:24.754Z,31.57
2018-05-04T15:07:53.034Z,29.13
2018-05-04T15:10:21.334Z,27.87
2018-05-04T15:12:48.846Z,29.10
2018-05-04T15:15:16.360Z,29.47
2018-05-04T15:17:43.873Z,28.80
2018-05-04T15:20:12.165Z,25.77
2018-05-04T15:22:40.454Z,27.77
2018-05-04T15:25:07.966Z,25.73
2018-05-04T15:27:35.485Z,19.70
2018-05-04T15:30:03.027Z,20.40
2018-05-04T15:32:31.305Z,14.50
2018-05-04T15:34:58.821Z,12.90
2018-05-04T15:37:26.344Z,12.63
2018-05-04T15:39:53.968Z,15.30
2018-05-04T15:42:22.158Z,11.60
2018-05-04T15:44:49.676Z,12.40
2018-05-04T15:47:17.203Z,13.00
2018-05-04T15:49:44.721Z,13.37
2018-05-04T15:52:13.006Z,13.43
2018-05-04T15:54:40.599Z,14.03
2018-05-04T15:57:08.846Z,13.73
2018-05-04T15:59:36.357Z,13.60
2018-05-04T16:02:03.869Z,14.23
2018-05-04T16:04:31.382Z,15.80
2018-05-04T16:06:58.897Z,16.20
2018-05-04T16:09:26.429Z,15.43
2018-05-04T16:11:54.713Z,15.20
2018-05-04T16:14:22.234Z,14.23
2018-05-04T16:16:49.741Z,13.23
2018-05-04T16:19:17.261Z,15.20
2018-05-04T16:21:44.774Z,14.60
2018-05-04T16:24:12.289Z,15.30
2018-05-04T16:26:40.569Z,16.63
2018-05-04T16:29:08.854Z,17.17
2018-05-04T16:31:37.138Z,15.97
2018-05-04T16:34:04.645Z,18.90
2018-05-04T16:36:32.158Z,18.20
2018-05-04T16:38:59.697Z,16.67
2018-05-04T16:41:27.970Z,17.83
2018-05-04T16:43:56.967Z,13.73
2018-05-04T16:46:31.003Z,13.93
2018-05-04T16:49:04.155Z,13.53
2018-05-04T16:51:31.677Z,14.83
2018-05-04T16:53:59.185Z,14.10
2018-05-04T16:56:27.477Z,15.60
2018-05-04T16:58:55.774Z,15.80
2018-05-04T17:01:23.296Z,18.07
2018-05-04T17:03:51.580Z,14.63
2018-05-04T17:06:19.919Z,17.63
2018-05-04T17:08:47.399Z,16.57
2018-05-04T17:11:14.925Z,17.70
2018-05-04T17:13:42.433Z,16.83
2018-05-04T17:16:10.840Z,16.63
2018-05-04T17:18:38.350Z,17.07
2018-05-04T17:21:05.861Z,15.47
2018-05-04T17:23:33.373Z,17.40
2018-05-04T17:26:01.661Z,17.47
2018-05-04T17:28:29.949Z,17.83
2018-05-04T17:30:58.237Z,18.67
2018-05-04T17:33:25.762Z,17.90
2018-05-04T17:35:53.283Z,20.37
2018-05-04T17:38:20.810Z,19.23
2018-05-04T17:40:48.325Z,17.23
2018-05-04T17:45:42.954Z,17.67
2018-05-04T17:48:11.238Z,18.50
2018-05-04T17:50:39.519Z,20.10
2018-05-04T17:53:07.797Z,21.37
2018-05-04T17:55:36.082Z,20.10
2018-05-04T17:58:03.602Z,20.50
2018-05-04T18:00:32.625Z,20.80
2018-05-04T18:03:00.963Z,18.97
2018-05-04T18:05:28.495Z,18.73
2018-05-04T18:07:56.017Z,18.97
2018-05-04T18:10:24.305Z,18.43
2018-05-04T18:12:51.818Z,18.30
2018-05-04T18:15:19.349Z,20.40
2018-05-04T18:17:46.866Z,19.23
2018-05-04T18:20:15.144Z,20.77
2018-05-04T18:22:43.441Z,20.03
2018-05-04T18:25:10.961Z,22.00
2018-05-04T18:27:38.485Z,19.43
2018-05-04T18:30:06.006Z,19.63
2018-05-04T18:32:34.304Z,19.03
2018-05-04T18:35:01.842Z,18.30
2018-05-04T18:37:30.117Z,19.30
2018-05-04T18:39:58.405Z,20.20
2018-05-04T18:42:25.933Z,18.33
2018-05-04T18:44:53.456Z,18.77
2018-05-04T18:47:20.986Z,17.30
2018-05-04T18:49:48.513Z,19.00
2018-05-04T18:52:16.029Z,20.33
2018-05-04T18:54:43.543Z,19.53
2018-05-04T18:57:11.833Z,20.40
2018-05-04T18:59:39.345Z,21.03
2018-05-04T19:02:06.882Z,20.90
2018-05-04T19:04:34.406Z,19.00
2018-05-04T19:07:01.930Z,18.60
2018-05-04T19:09:30.954Z,19.30
2018-05-04T19:11:59.237Z,19.83
2018-05-04T19:14:26.798Z,21.07
2018-05-04T19:16:54.309Z,20.17
2018-05-04T19:19:22.618Z,19.03
2018-05-04T19:21:50.908Z,19.47
2018-05-04T19:24:18.425Z,19.00
2018-05-04T19:26:45.950Z,18.73
2018-05-04T19:29:13.545Z,20.07
2018-05-04T19:31:41.770Z,20.27
2018-05-04T19:34:09.317Z,19.13
2018-05-04T19:36:37.597Z,20.30
2018-05-04T19:39:05.113Z,21.63
2018-05-04T19:41:33.424Z,22.13
2018-05-04T19:44:01.740Z,21.80
2018-05-04T19:46:29.245Z,23.97
2018-05-04T19:48:56.847Z,24.87
2018-05-04T19:51:24.361Z,24.67
2018-05-04T19:53:51.872Z,25.67
2018-05-04T19:56:19.389Z,26.50
2018-05-04T19:58:47.779Z,28.27
2018-05-04T20:01:15.960Z,27.77
2018-05-04T20:03:43.479Z,30.27
2018-05-04T20:06:11.025Z,29.40
2018-05-04T20:08:38.542Z,32.53
2018-05-04T20:11:06.064Z,32.37
2018-05-04T20:13:34.365Z,30.80
2018-05-04T20:16:02.652Z,30.13
2018-05-04T20:18:30.173Z,33.33
2018-05-04T20:20:59.207Z,36.17
2018-05-04T20:23:26.731Z,32.77
2018-05-04T20:25:54.253Z,34.90
2018-05-04T20:28:21.771Z,34.27
2018-05-04T20:30:50.061Z,34.37
2018-05-04T20:33:17.581Z,35.93
2018-05-04T20:35:45.869Z,33.93
2018-05-04T20:38:14.162Z,35.70
2018-05-04T20:40:42.455Z,36.63
2018-05-04T20:43:09.985Z,33.67
2018-05-04T20:45:38.267Z,34.00
2018-05-04T20:48:06.571Z,35.03
2018-05-04T20:50:34.087Z,33.60
2018-05-04T20:53:02.373Z,36.50
2018-05-04T20:55:30.666Z,35.30
2018-05-04T20:57:58.194Z,35.90
2018-05-04T21:00:27.218Z,33.93
2018-05-04T21:02:55.497Z,36.43
2018-05-04T21:05:23.788Z,34.60
2018-05-04T21:07:51.321Z,36.57
2018-05-04T21:10:19.597Z,34.50
2018-05-04T21:12:47.877Z,36.20
2018-05-04T21:15:16.185Z,38.67
2018-05-04T21:17:43.715Z,35.20
2018-05-04T21:20:12.010Z,35.73
2018-05-04T21:22:39.522Z,34.70
2018-05-04T21:25:07.045Z,35.00
2018-05-04T21:27:34.557Z,86.17
2018-05-04T21:30:02.870Z,45.63
2018-05-04T21:32:30.382Z,37.10
2018-05-04T21:34:58.675Z,39.20
2018-05-04T21:37:26.961Z,36.90
2018-05-04T21:39:54.487Z,39.77
2018-05-04T21:42:22.008Z,34.90
2018-05-04T21:44:49.606Z,35.90
2018-05-04T21:47:17.090Z,35.77
2018-05-04T21:49:45.365Z,35.10
2018-05-04T21:52:13.653Z,36.37
2018-05-04T21:54:41.169Z,36.73
2018-05-04T21:57:08.705Z,36.93
2018-05-04T21:59:36.237Z,34.03
2018-05-04T22:02:03.761Z,36.50
2018-05-04T22:04:32.045Z,36.33
2018-05-04T22:07:00.342Z,34.47
2018-05-04T22:09:27.873Z,35.03
2018-05-04T22:11:56.177Z,35.37
2018-05-04T22:14:23.689Z,34.60
2018-05-04T22:16:51.211Z,35.43
2018-05-04T22:19:18.725Z,34.90
2018-05-04T22:21:47.764Z,34.70
2018-05-04T22:24:15.367Z,36.10
2018-05-04T22:26:43.589Z,36.10
2018-05-04T22:29:11.126Z,36.40
2018-05-04T22:31:39.411Z,37.40
2018-05-04T22:34:07.694Z,38.10
2018-05-04T22:36:35.213Z,35.63
2018-05-04T22:39:02.733Z,36.90
2018-05-04T22:41:30.253Z,34.90
2018-05-04T22:43:58.542Z,36.40
2018-05-04T22:46:26.821Z,34.67
2018-05-04T22:48:54.351Z,35.03
2018-05-04T22:51:22.641Z,34.40
2018-05-04T22:53:50.934Z,34.83
2018-05-04T22:56:19.214Z,32.60
2018-05-04T22:58:46.737Z,34.07
2018-05-04T23:01:14.258Z,36.40
2018-05-04T23:03:41.786Z,36.63
2018-05-04T23:06:09.321Z,36.13
2018-05-04T23:08:37.606Z,36.50
2018-05-04T23:11:05.916Z,34.80
2018-05-04T23:13:33.439Z,35.40
2018-05-04T23:16:00.960Z,34.37
2018-05-04T23:18:28.482Z,37.23
2018-05-04T23:20:56.010Z,36.30
2018-05-04T23:23:24.307Z,35.90
2018-05-04T23:25:52.590Z,35.80
2018-05-04T23:28:20.114Z,37.50
2018-05-04T23:30:47.641Z,36.00
2018-05-04T23:33:15.154Z,37.27
2018-05-04T23:35:43.466Z,35.90
2018-05-04T23:38:10.979Z,36.23
2018-05-04T23:40:39.266Z,35.40
2018-05-04T23:43:07.550Z,35.90
2018-05-04T23:45:35.829Z,36.13
2018-05-04T23:48:04.118Z,40.13
2018-05-04T23:50:31.641Z,36.23
2018-05-04T23:53:00.667Z,37.07
2018-05-04T23:55:28.189Z,36.70
2018-05-04T23:57:55.715Z,35.10
